sensor_id;sensor_type;location;lat;lon;timestamp;pressure;altitude;pressure_sealevel;temperature;humidity
36092;BME280;22147;52.388;13.390;2024-01-07T00:00:07;101018.66;;;-4.12;100.00
36092;BME280;22147;52.388;13.390;2024-01-07T00:02:39;101025.97;;;-4.12;100.00
36092;BME280;22147;52.388;13.390;2024-01-07T00:05:09;101021.50;;;-4.06;100.00
36092;BME280;22147;52.388;13.390;2024-01-07T00:07:39;101031.75;;;-4.09;100.00
36092;BME280;22147;52.388;13.390;2024-01-07T00:10:10;101020.25;;;-4.04;100.00
36092;BME280;22147;52.388;13.390;2024-01-07T00:12:40;101025.97;;;-4.12;100.00
36092;BME280;22147;52.388;13.390;2024-01-07T00:15:11;101029.06;;;-4.09;100.00
36092;BME280;22147;52.388;13.390;2024-01-07T00:17:41;101039.88;;;-4.02;100.00
36092;BME280;22147;52.388;13.390;2024-01-07T00:20:12;101030.13;;;-4.10;100.00
36092;BME280;22147;52.388;13.390;2024-01-07T00:22:42;101043.91;;;-4.11;100.00
36092;BME280;22147;52.388;13.390;2024-01-07T00:25:12;101036.00;;;-4.13;100.00
36092;BME280;22147;52.388;13.390;2024-01-07T00:27:43;101043.22;;;-4.06;100.00
36092;BME280;22147;52.388;13.390;2024-01-07T00:30:13;101041.56;;;-4.07;100.00
36092;BME280;22147;52.388;13.390;2024-01-07T00:32:44;101044.91;;;-4.05;100.00
36092;BME280;22147;52.388;13.390;2024-01-07T00:35:14;101038.88;;;-4.07;100.00
36092;BME280;22147;52.388;13.390;2024-01-07T00:37:45;101049.78;;;-4.14;100.00
36092;BME280;22147;52.388;13.390;2024-01-07T00:40:15;101046.84;;;-4.13;100.00
36092;BME280;22147;52.388;13.390;2024-01-07T00:42:46;101050.38;;;-4.12;100.00
36092;BME280;22147;52.388;13.390;2024-01-07T00:45:17;101055.41;;;-4.16;100.00
36092;BME280;22147;52.388;13.390;2024-01-07T00:47:48;101056.91;;;-4.20;100.00
36092;BME280;22147;52.388;13.390;2024-01-07T00:50:18;101061.06;;;-4.17;100.00
36092;BME280;22147;52.388;13.390;2024-01-07T00:52:49;101073.38;;;-4.15;100.00
36092;BME280;22147;52.388;13.390;2024-01-07T00:55:19;101071.69;;;-4.16;100.00
36092;BME280;22147;52.388;13.390;2024-01-07T00:57:50;101066.94;;;-4.20;100.00
36092;BME280;22147;52.388;13.390;2024-01-07T01:00:19;101078.22;;;-4.23;100.00
36092;BME280;22147;52.388;13.390;2024-01-07T01:02:49;101085.13;;;-4.21;100.00
36092;BME280;22147;52.388;13.390;2024-01-07T01:05:18;101076.56;;;-4.24;100.00
36092;BME280;22147;52.388;13.390;2024-01-07T01:07:46;101084.09;;;-4.26;100.00
36092;BME280;22147;52.388;13.390;2024-01-07T01:10:15;101091.34;;;-4.20;100.00
36092;BME280;22147;52.388;13.390;2024-01-07T01:12:46;101095.78;;;-4.26;100.00
36092;BME280;22147;52.388;13.390;2024-01-07T01:15:17;101104.72;;;-4.19;100.00
36092;BME280;22147;52.388;13.390;2024-01-07T01:17:47;101099.28;;;-4.19;100.00
36092;BME280;22147;52.388;13.390;2024-01-07T01:20:18;101103.53;;;-4.30;100.00
36092;BME280;22147;52.388;13.390;2024-01-07T01:22:48;101107.34;;;-4.37;100.00
36092;BME280;22147;52.388;13.390;2024-01-07T01:25:18;101106.34;;;-4.43;100.00
36092;BME280;22147;52.388;13.390;2024-01-07T01:27:49;101113.81;;;-4.38;100.00
36092;BME280;22147;52.388;13.390;2024-01-07T01:30:19;101115.88;;;-4.34;100.00
36092;BME280;22147;52.388;13.390;2024-01-07T01:32:50;101118.19;;;-4.37;100.00
36092;BME280;22147;52.388;13.390;2024-01-07T01:35:20;101122.84;;;-4.44;100.00
36092;BME280;22147;52.388;13.390;2024-01-07T01:37:50;101119.72;;;-4.48;100.00
36092;BME280;22147;52.388;13.390;2024-01-07T01:40:21;101122.03;;;-4.52;100.00
36092;BME280;22147;52.388;13.390;2024-01-07T01:42:51;101129.78;;;-4.55;100.00
36092;BME280;22147;52.388;13.390;2024-01-07T01:45:22;101127.91;;;-4.55;100.00
36092;BME280;22147;52.388;13.390;2024-01-07T01:47:52;101140.19;;;-4.52;100.00
36092;BME280;22147;52.388;13.390;2024-01-07T01:50:24;101142.69;;;-4.51;100.00
36092;BME280;22147;52.388;13.390;2024-01-07T01:52:55;101137.06;;;-4.56;100.00
36092;BME280;22147;52.388;13.390;2024-01-07T01:55:26;101139.13;;;-4.51;99.89
36092;BME280;22147;52.388;13.390;2024-01-07T01:57:59;101150.63;;;-4.56;98.26
36092;BME280;22147;52.388;13.390;2024-01-07T02:00:34;101142.75;;;-4.64;100.00
36092;BME280;22147;52.388;13.390;2024-01-07T02:03:04;101145.88;;;-4.60;100.00
36092;BME280;22147;52.388;13.390;2024-01-07T02:05:35;101150.63;;;-4.56;99.57
36092;BME280;22147;52.388;13.390;2024-01-07T02:08:05;101154.16;;;-4.55;98.00
36092;BME280;22147;52.388;13.390;2024-01-07T02:10:34;101161.69;;;-4.57;98.13
36092;BME280;22147;52.388;13.390;2024-01-07T02:13:10;101151.75;;;-4.63;97.00
36092;BME280;22147;52.388;13.390;2024-01-07T02:15:43;101146.78;;;-4.73;96.67
36092;BME280;22147;52.388;13.390;2024-01-07T02:18:14;101153.22;;;-4.67;96.95
36092;BME280;22147;52.388;13.390;2024-01-07T02:20:44;101159.25;;;-4.65;96.98
36092;BME280;22147;52.388;13.390;2024-01-07T02:23:15;101165.13;;;-4.75;97.31
36092;BME280;22147;52.388;13.390;2024-01-07T02:25:45;101156.78;;;-4.74;97.67
36092;BME280;22147;52.388;13.390;2024-01-07T02:28:15;101151.78;;;-4.77;97.37
36092;BME280;22147;52.388;13.390;2024-01-07T02:30:46;101155.56;;;-4.78;96.57
36092;BME280;22147;52.388;13.390;2024-01-07T02:33:16;101162.41;;;-4.75;95.39
36092;BME280;22147;52.388;13.390;2024-01-07T02:35:47;101160.97;;;-4.78;94.66
36092;BME280;22147;52.388;13.390;2024-01-07T02:38:17;101164.97;;;-4.80;95.43
36092;BME280;22147;52.388;13.390;2024-01-07T02:40:48;101171.41;;;-4.81;96.53
36092;BME280;22147;52.388;13.390;2024-01-07T02:43:18;101162.91;;;-4.92;97.08
36092;BME280;22147;52.388;13.390;2024-01-07T02:45:48;101165.59;;;-4.85;96.79
36092;BME280;22147;52.388;13.390;2024-01-07T02:48:19;101166.84;;;-4.87;96.06
36092;BME280;22147;52.388;13.390;2024-01-07T02:50:49;101168.56;;;-4.93;95.36
36092;BME280;22147;52.388;13.390;2024-01-07T02:53:19;101170.84;;;-4.97;96.19
36092;BME280;22147;52.388;13.390;2024-01-07T02:55:50;101181.31;;;-5.07;97.27
36092;BME280;22147;52.388;13.390;2024-01-07T02:58:20;101184.81;;;-5.00;96.07
36092;BME280;22147;52.388;13.390;2024-01-07T03:00:50;101180.03;;;-5.04;95.82
36092;BME280;22147;52.388;13.390;2024-01-07T03:03:20;101185.69;;;-5.13;96.73
36092;BME280;22147;52.388;13.390;2024-01-07T03:05:51;101181.34;;;-5.14;96.58
36092;BME280;22147;52.388;13.390;2024-01-07T03:08:22;101189.91;;;-5.30;97.10
36092;BME280;22147;52.388;13.390;2024-01-07T03:10:52;101184.69;;;-5.32;96.86
36092;BME280;22147;52.388;13.390;2024-01-07T03:13:22;101188.88;;;-5.22;97.63
36092;BME280;22147;52.388;13.390;2024-01-07T03:15:53;101188.25;;;-5.38;97.74
36092;BME280;22147;52.388;13.390;2024-01-07T03:18:23;101196.38;;;-5.38;97.34
36092;BME280;22147;52.388;13.390;2024-01-07T03:20:54;101192.22;;;-5.47;97.74
36092;BME280;22147;52.388;13.390;2024-01-07T03:23:24;101197.47;;;-5.52;98.20
36092;BME280;22147;52.388;13.390;2024-01-07T03:25:58;101197.03;;;-5.56;98.08
36092;BME280;22147;52.388;13.390;2024-01-07T03:28:28;101207.66;;;-5.61;99.19
36092;BME280;22147;52.388;13.390;2024-01-07T03:30:58;101212.84;;;-5.59;98.73
36092;BME280;22147;52.388;13.390;2024-01-07T03:33:29;101207.66;;;-5.61;98.82
36092;BME280;22147;52.388;13.390;2024-01-07T03:35:59;101202.66;;;-5.64;99.19
36092;BME280;22147;52.388;13.390;2024-01-07T03:38:29;101210.59;;;-5.62;99.38
36092;BME280;22147;52.388;13.390;2024-01-07T03:41:00;101214.75;;;-5.73;100.00
36092;BME280;22147;52.388;13.390;2024-01-07T03:43:28;101216.59;;;-5.74;99.96
36092;BME280;22147;52.388;13.390;2024-01-07T03:45:57;101212.69;;;-5.78;100.00
36092;BME280;22147;52.388;13.390;2024-01-07T03:48:26;101222.25;;;-5.82;100.00
36092;BME280;22147;52.388;13.390;2024-01-07T03:50:56;101224.31;;;-5.84;100.00
36092;BME280;22147;52.388;13.390;2024-01-07T03:53:25;101222.44;;;-5.90;100.00
36092;BME280;22147;52.388;13.390;2024-01-07T03:55:53;101234.91;;;-5.89;100.00
36092;BME280;22147;52.388;13.390;2024-01-07T03:58:22;101229.72;;;-5.97;100.00
36092;BME280;22147;52.388;13.390;2024-01-07T04:00:50;101238.91;;;-5.98;100.00
36092;BME280;22147;52.388;13.390;2024-01-07T04:03:19;101242.84;;;-6.01;100.00
36092;BME280;22147;52.388;13.390;2024-01-07T04:05:47;101252.19;;;-6.03;100.00
36092;BME280;22147;52.388;13.390;2024-01-07T04:08:16;101255.53;;;-6.08;100.00
36092;BME280;22147;52.388;13.390;2024-01-07T04:10:44;101260.72;;;-6.13;100.00
36092;BME280;22147;52.388;13.390;2024-01-07T04:13:12;101260.31;;;-6.10;100.00
36092;BME280;22147;52.388;13.390;2024-01-07T04:15:41;101272.38;;;-6.12;100.00
36092;BME280;22147;52.388;13.390;2024-01-07T04:18:09;101279.47;;;-6.11;100.00
36092;BME280;22147;52.388;13.390;2024-01-07T04:20:38;101282.78;;;-6.09;100.00
36092;BME280;22147;52.388;13.390;2024-01-07T04:23:06;101280.47;;;-6.12;100.00
36092;BME280;22147;52.388;13.390;2024-01-07T04:25:35;101283.81;;;-6.17;100.00
36092;BME280;22147;52.388;13.390;2024-01-07T04:28:03;101285.69;;;-6.11;100.00
36092;BME280;22147;52.388;13.390;2024-01-07T04:30:31;101293.81;;;-6.11;99.81
36092;BME280;22147;52.388;13.390;2024-01-07T04:33:00;101283.00;;;-6.11;99.79
36092;BME280;22147;52.388;13.390;2024-01-07T04:35:28;101285.44;;;-6.16;100.00
36092;BME280;22147;52.388;13.390;2024-01-07T04:37:57;101291.72;;;-6.16;99.75
36092;BME280;22147;52.388;13.390;2024-01-07T04:40:25;101290.03;;;-6.23;98.97
36092;BME280;22147;52.388;13.390;2024-01-07T04:42:54;101292.09;;;-6.25;99.91
36092;BME280;22147;52.388;13.390;2024-01-07T04:45:22;101296.47;;;-6.24;99.94
36092;BME280;22147;52.388;13.390;2024-01-07T04:47:50;101295.88;;;-6.20;99.50
36092;BME280;22147;52.388;13.390;2024-01-07T04:50:19;101293.78;;;-6.18;98.56
36092;BME280;22147;52.388;13.390;2024-01-07T04:52:47;101296.06;;;-6.21;98.23
36092;BME280;22147;52.388;13.390;2024-01-07T04:55:16;101292.09;;;-6.25;98.33
36092;BME280;22147;52.388;13.390;2024-01-07T04:57:44;101299.38;;;-6.26;99.16
36092;BME280;22147;52.388;13.390;2024-01-07T05:00:14;101289.19;;;-6.24;98.34
36092;BME280;22147;52.388;13.390;2024-01-07T05:02:44;101292.91;;;-6.25;99.15
36092;BME280;22147;52.388;13.390;2024-01-07T05:05:15;101300.63;;;-6.28;98.16
36092;BME280;22147;52.388;13.390;2024-01-07T05:07:45;101311.03;;;-6.25;98.29
36092;BME280;22147;52.388;13.390;2024-01-07T05:10:16;101306.06;;;-6.22;98.43
36092;BME280;22147;52.388;13.390;2024-01-07T05:12:46;101313.53;;;-6.24;98.87
36092;BME280;22147;52.388;13.390;2024-01-07T05:15:16;101315.16;;;-6.29;99.44
36092;BME280;22147;52.388;13.390;2024-01-07T05:17:47;101311.81;;;-6.31;100.00
36092;BME280;22147;52.388;13.390;2024-01-07T05:20:17;101310.97;;;-6.39;100.00
36092;BME280;22147;52.388;13.390;2024-01-07T05:22:47;101325.31;;;-6.38;100.00
36092;BME280;22147;52.388;13.390;2024-01-07T05:25:18;101327.66;;;-6.28;99.42
36092;BME280;22147;52.388;13.390;2024-01-07T05:27:48;101329.03;;;-6.39;100.00
36092;BME280;22147;52.388;13.390;2024-01-07T05:30:19;101325.13;;;-6.37;100.00
36092;BME280;22147;52.388;13.390;2024-01-07T05:32:49;101342.56;;;-6.39;100.00
36092;BME280;22147;52.388;13.390;2024-01-07T05:35:20;101332.59;;;-6.45;100.00
36092;BME280;22147;52.388;13.390;2024-01-07T05:37:50;101342.34;;;-6.44;100.00
36092;BME280;22147;52.388;13.390;2024-01-07T05:40:22;101347.56;;;-6.43;100.00
36092;BME280;22147;52.388;13.390;2024-01-07T05:42:52;101345.03;;;-6.44;100.00
36092;BME280;22147;52.388;13.390;2024-01-07T05:45:23;101348.81;;;-6.45;100.00
36092;BME280;22147;52.388;13.390;2024-01-07T05:47:56;101348.53;;;-6.50;100.00
36092;BME280;22147;52.388;13.390;2024-01-07T05:50:26;101357.31;;;-6.42;100.00
36092;BME280;22147;52.388;13.390;2024-01-07T05:52:57;101360.03;;;-6.42;100.00
36092;BME280;22147;52.388;13.390;2024-01-07T05:55:25;101364.13;;;-6.52;100.00
36092;BME280;22147;52.388;13.390;2024-01-07T05:57:54;101363.94;;;-6.51;100.00
36092;BME280;22147;52.388;13.390;2024-01-07T06:00:22;101365.56;;;-6.57;100.00
36092;BME280;22147;52.388;13.390;2024-01-07T06:02:50;101366.81;;;-6.59;100.00
36092;BME280;22147;52.388;13.390;2024-01-07T06:05:19;101367.78;;;-6.67;100.00
36092;BME280;22147;52.388;13.390;2024-01-07T06:07:47;101368.41;;;-6.65;100.00
36092;BME280;22147;52.388;13.390;2024-01-07T06:10:16;101375.69;;;-6.65;100.00
36092;BME280;22147;52.388;13.390;2024-01-07T06:12:44;101384.81;;;-6.73;100.00
36092;BME280;22147;52.388;13.390;2024-01-07T06:15:12;101387.91;;;-6.76;100.00
36092;BME280;22147;52.388;13.390;2024-01-07T06:17:41;101387.69;;;-6.74;100.00
36092;BME280;22147;52.388;13.390;2024-01-07T06:20:11;101382.13;;;-6.73;100.00
36092;BME280;22147;52.388;13.390;2024-01-07T06:22:41;101388.97;;;-6.70;100.00
36092;BME280;22147;52.388;13.390;2024-01-07T06:25:09;101388.56;;;-6.67;100.00
36092;BME280;22147;52.388;13.390;2024-01-07T06:27:41;101404.00;;;-6.61;100.00
36092;BME280;22147;52.388;13.390;2024-01-07T06:30:12;101402.75;;;-6.59;100.00
36092;BME280;22147;52.388;13.390;2024-01-07T06:32:43;101402.16;;;-6.54;100.00
36092;BME280;22147;52.388;13.390;2024-01-07T06:35:13;101411.13;;;-6.53;100.00
36092;BME280;22147;52.388;13.390;2024-01-07T06:37:44;101398.28;;;-6.45;100.00
36092;BME280;22147;52.388;13.390;2024-01-07T06:40:15;101403.28;;;-6.42;100.00
36092;BME280;22147;52.388;13.390;2024-01-07T06:42:45;101403.09;;;-6.40;100.00
36092;BME280;22147;52.388;13.390;2024-01-07T06:45:17;101416.13;;;-6.50;100.00
36092;BME280;22147;52.388;13.390;2024-01-07T06:47:48;101404.25;;;-6.56;100.00
36092;BME280;22147;52.388;13.390;2024-01-07T06:50:18;101419.22;;;-6.53;100.00
36092;BME280;22147;52.388;13.390;2024-01-07T06:52:50;101421.53;;;-6.50;100.00
36092;BME280;22147;52.388;13.390;2024-01-07T06:55:21;101425.94;;;-6.43;100.00
36092;BME280;22147;52.388;13.390;2024-01-07T06:57:50;101430.53;;;-6.43;100.00
36092;BME280;22147;52.388;13.390;2024-01-07T07:00:20;101423.59;;;-6.52;100.00
36092;BME280;22147;52.388;13.390;2024-01-07T07:02:50;101436.91;;;-6.51;100.00
36092;BME280;22147;52.388;13.390;2024-01-07T07:05:19;101436.09;;;-6.51;100.00
36092;BME280;22147;52.388;13.390;2024-01-07T07:07:48;101430.31;;;-6.42;100.00
36092;BME280;22147;52.388;13.390;2024-01-07T07:10:21;101434.88;;;-6.42;100.00
36092;BME280;22147;52.388;13.390;2024-01-07T07:12:51;101443.00;;;-6.42;100.00
36092;BME280;22147;52.388;13.390;2024-01-07T07:15:21;101443.63;;;-6.40;100.00
36092;BME280;22147;52.388;13.390;2024-01-07T07:17:50;101431.19;;;-6.35;100.00
36092;BME280;22147;52.388;13.390;2024-01-07T07:20:20;101443.28;;;-6.30;100.00
36092;BME280;22147;52.388;13.390;2024-01-07T07:22:49;101446.63;;;-6.28;100.00
36092;BME280;22147;52.388;13.390;2024-01-07T07:25:19;101450.16;;;-6.28;100.00
36092;BME280;22147;52.388;13.390;2024-01-07T07:27:49;101448.09;;;-6.26;100.00
36092;BME280;22147;52.388;13.390;2024-01-07T07:30:18;101456.88;;;-6.17;100.00
36092;BME280;22147;52.388;13.390;2024-01-07T07:32:47;101463.31;;;-6.18;100.00
36092;BME280;22147;52.388;13.390;2024-01-07T07:35:17;101462.09;;;-6.16;100.00
36092;BME280;22147;52.388;13.390;2024-01-07T07:37:47;101468.16;;;-6.13;100.00
36092;BME280;22147;52.388;13.390;2024-01-07T07:40:16;101468.16;;;-6.07;100.00
36092;BME280;22147;52.388;13.390;2024-01-07T07:42:46;101475.25;;;-6.06;100.00
36092;BME280;22147;52.388;13.390;2024-01-07T07:45:16;101475.47;;;-6.07;100.00
36092;BME280;22147;52.388;13.390;2024-01-07T07:47:45;101472.97;;;-6.02;100.00
36092;BME280;22147;52.388;13.390;2024-01-07T07:50:15;101473.00;;;-5.96;100.00
36092;BME280;22147;52.388;13.390;2024-01-07T07:52:45;101475.06;;;-5.91;99.84
36092;BME280;22147;52.388;13.390;2024-01-07T07:55:14;101479.47;;;-5.90;99.99
36092;BME280;22147;52.388;13.390;2024-01-07T07:57:44;101484.06;;;-5.90;100.00
36092;BME280;22147;52.388;13.390;2024-01-07T08:00:14;101497.34;;;-5.89;100.00
36092;BME280;22147;52.388;13.390;2024-01-07T08:02:44;101493.03;;;-5.83;100.00
36092;BME280;22147;52.388;13.390;2024-01-07T08:05:13;101506.56;;;-5.83;98.98
36092;BME280;22147;52.388;13.390;2024-01-07T08:07:43;101498.47;;;-5.77;99.32
36092;BME280;22147;52.388;13.390;2024-01-07T08:10:12;101497.84;;;-5.72;98.54
36092;BME280;22147;52.388;13.390;2024-01-07T08:12:42;101505.16;;;-5.66;97.28
36092;BME280;22147;52.388;13.390;2024-01-07T08:15:11;101496.25;;;-5.60;96.86
36092;BME280;22147;52.388;13.390;2024-01-07T08:17:41;101503.34;;;-5.59;97.08
36092;BME280;22147;52.388;13.390;2024-01-07T08:20:12;101502.72;;;-5.54;97.01
36092;BME280;22147;52.388;13.390;2024-01-07T08:22:43;101508.16;;;-5.47;96.23
36092;BME280;22147;52.388;13.390;2024-01-07T08:25:12;101502.97;;;-5.42;97.03
36092;BME280;22147;52.388;13.390;2024-01-07T08:27:42;101504.63;;;-5.48;96.26
36092;BME280;22147;52.388;13.390;2024-01-07T08:30:13;101507.13;;;-5.46;96.05
36092;BME280;22147;52.388;13.390;2024-01-07T08:32:42;101510.25;;;-5.49;96.99
36092;BME280;22147;52.388;13.390;2024-01-07T08:35:12;101514.66;;;-5.42;97.38
36092;BME280;22147;52.388;13.390;2024-01-07T08:37:44;101523.78;;;-5.43;95.70
36092;BME280;22147;52.388;13.390;2024-01-07T08:40:14;101529.66;;;-5.39;97.83
36092;BME280;22147;52.388;13.390;2024-01-07T08:42:42;101532.19;;;-5.31;98.24
36092;BME280;22147;52.388;13.390;2024-01-07T08:45:11;101535.28;;;-5.27;96.41
36092;BME280;22147;52.388;13.390;2024-01-07T08:47:39;101537.19;;;-5.21;95.64
36092;BME280;22147;52.388;13.390;2024-01-07T08:50:11;101525.75;;;-5.17;97.97
36092;BME280;22147;52.388;13.390;2024-01-07T08:52:42;101529.91;;;-5.21;97.35
36092;BME280;22147;52.388;13.390;2024-01-07T08:55:10;101528.44;;;-5.17;98.75
36092;BME280;22147;52.388;13.390;2024-01-07T08:57:39;101514.72;;;-5.15;97.42
36092;BME280;22147;52.388;13.390;2024-01-07T09:00:09;101513.06;;;-5.09;94.97
36092;BME280;22147;52.388;13.390;2024-01-07T09:02:39;101517.84;;;-5.12;97.05
36092;BME280;22147;52.388;13.390;2024-01-07T09:05:12;101529.72;;;-5.06;96.99
36092;BME280;22147;52.388;13.390;2024-01-07T09:07:43;101519.94;;;-5.00;96.38
36092;BME280;22147;52.388;13.390;2024-01-07T09:10:12;101527.91;;;-4.92;96.59
36092;BME280;22147;52.388;13.390;2024-01-07T09:12:42;101527.69;;;-4.91;96.08
36092;BME280;22147;52.388;13.390;2024-01-07T09:15:12;101515.16;;;-4.98;94.24
36092;BME280;22147;52.388;13.390;2024-01-07T09:17:41;101519.13;;;-4.87;95.96
36092;BME280;22147;52.388;13.390;2024-01-07T09:20:12;101523.09;;;-4.83;97.24
36092;BME280;22147;52.388;13.390;2024-01-07T09:22:41;101532.50;;;-4.86;94.93
36092;BME280;22147;52.388;13.390;2024-01-07T09:25:12;101547.09;;;-4.80;95.38
36092;BME280;22147;52.388;13.390;2024-01-07T09:27:42;101536.03;;;-4.72;96.19
36092;BME280;22147;52.388;13.390;2024-01-07T09:30:13;101534.38;;;-4.73;94.31
36092;BME280;22147;52.388;13.390;2024-01-07T09:32:44;101536.47;;;-4.75;96.06
36092;BME280;22147;52.388;13.390;2024-01-07T09:35:14;101530.41;;;-4.71;97.49
36092;BME280;22147;52.388;13.390;2024-01-07T09:37:43;101537.28;;;-4.68;97.31
36092;BME280;22147;52.388;13.390;2024-01-07T09:40:17;101541.06;;;-4.62;95.95
36092;BME280;22147;52.388;13.390;2024-01-07T09:42:50;101529.38;;;-4.56;95.82
36092;BME280;22147;52.388;13.390;2024-01-07T09:45:21;101530.22;;;-4.56;95.52
36092;BME280;22147;52.388;13.390;2024-01-07T09:47:51;101531.03;;;-4.55;94.85
36092;BME280;22147;52.388;13.390;2024-01-07T09:50:19;101526.47;;;-4.48;95.20
36092;BME280;22147;52.388;13.390;2024-01-07T09:52:51;101518.97;;;-4.39;95.69
36092;BME280;22147;52.388;13.390;2024-01-07T09:58:35;101529.63;;;-4.44;95.91
36092;BME280;22147;52.388;13.390;2024-01-07T10:01:07;101529.59;;;-4.38;96.19
36092;BME280;22147;52.388;13.390;2024-01-07T10:03:38;101536.91;;;-4.32;95.78
36092;BME280;22147;52.388;13.390;2024-01-07T10:06:11;101529.59;;;-4.31;94.47
36092;BME280;22147;52.388;13.390;2024-01-07T10:08:42;101533.75;;;-4.28;95.20
36092;BME280;22147;52.388;13.390;2024-01-07T10:11:16;101538.56;;;-4.31;96.34
36092;BME280;22147;52.388;13.390;2024-01-07T10:13:46;101528.75;;;-4.25;96.69
36092;BME280;22147;52.388;13.390;2024-01-07T10:16:21;101536.66;;;-4.23;96.34
36092;BME280;22147;52.388;13.390;2024-01-07T10:18:52;101531.88;;;-4.21;96.35
36092;BME280;22147;52.388;13.390;2024-01-07T10:21:23;101526.66;;;-4.16;97.50
36092;BME280;22147;52.388;13.390;2024-01-07T10:24:10;101544.00;;;-4.11;97.09
36092;BME280;22147;52.388;13.390;2024-01-07T10:26:41;101536.88;;;-4.12;97.26
36092;BME280;22147;52.388;13.390;2024-01-07T10:29:11;101541.47;;;-4.05;97.96
36092;BME280;22147;52.388;13.390;2024-01-07T10:31:43;101539.38;;;-4.10;97.58
36092;BME280;22147;52.388;13.390;2024-01-07T10:34:14;101528.94;;;-4.06;98.03
36092;BME280;22147;52.388;13.390;2024-01-07T10:36:46;101523.31;;;-4.12;97.92
36092;BME280;22147;52.388;13.390;2024-01-07T10:39:17;101533.53;;;-4.14;100.00
36092;BME280;22147;52.388;13.390;2024-01-07T10:41:50;101533.53;;;-4.14;100.00
36092;BME280;22147;52.388;13.390;2024-01-07T10:44:26;101538.75;;;-4.12;100.00
36092;BME280;22147;52.388;13.390;2024-01-07T10:47:07;101535.44;;;-4.14;100.00
36092;BME280;22147;52.388;13.390;2024-01-07T10:49:49;101541.28;;;-4.24;100.00
36092;BME280;22147;52.388;13.390;2024-01-07T10:52:21;101536.91;;;-4.25;100.00
36092;BME280;22147;52.388;13.390;2024-01-07T10:55:08;101528.31;;;-4.22;100.00
36092;BME280;22147;52.388;13.390;2024-01-07T10:57:47;101523.53;;;-4.20;100.00
36092;BME280;22147;52.388;13.390;2024-01-07T11:00:20;101518.09;;;-4.13;100.00
36092;BME280;22147;52.388;13.390;2024-01-07T11:03:20;101522.47;;;-4.12;100.00
36092;BME280;22147;52.388;13.390;2024-01-07T11:06:11;101521.66;;;-4.06;100.00
36092;BME280;22147;52.388;13.390;2024-01-07T11:09:03;101514.53;;;-4.07;100.00
36092;BME280;22147;52.388;13.390;2024-01-07T11:11:42;101517.03;;;-4.05;100.00
36092;BME280;22147;52.388;13.390;2024-01-07T11:17:12;101510.78;;;-4.06;100.00
36092;BME280;22147;52.388;13.390;2024-01-07T11:19:52;101511.59;;;-3.99;100.00
36092;BME280;22147;52.388;13.390;2024-01-07T11:22:29;101516.81;;;-3.97;100.00
36092;BME280;22147;52.388;13.390;2024-01-07T11:25:01;101517.03;;;-3.99;100.00
36092;BME280;22147;52.388;13.390;2024-01-07T11:27:34;101521.19;;;-3.96;100.00
36092;BME280;22147;52.388;13.390;2024-01-07T11:30:19;101507.84;;;-3.91;100.00
36092;BME280;22147;52.388;13.390;2024-01-07T11:32:59;101513.47;;;-3.93;100.00
36092;BME280;22147;52.388;13.390;2024-01-07T11:36:00;101509.06;;;-3.87;100.00
36092;BME280;22147;52.388;13.390;2024-01-07T11:38:34;101514.03;;;-3.77;100.00
36092;BME280;22147;52.388;13.390;2024-01-07T11:41:10;101503.00;;;-3.82;100.00
36092;BME280;22147;52.388;13.390;2024-01-07T11:46:34;101507.78;;;-3.78;100.00
36092;BME280;22147;52.388;13.390;2024-01-07T11:49:02;101495.84;;;-3.77;100.00
36092;BME280;22147;52.388;13.390;2024-01-07T11:51:32;101502.97;;;-3.76;100.00
36092;BME280;22147;52.388;13.390;2024-01-07T11:54:02;101496.28;;;-3.73;100.00
36092;BME280;22147;52.388;13.390;2024-01-07T11:56:30;101497.09;;;-3.73;100.00
36092;BME280;22147;52.388;13.390;2024-01-07T11:58:59;101505.88;;;-3.71;100.00
36092;BME280;22147;52.388;13.390;2024-01-07T12:01:27;101506.28;;;-3.67;100.00
36092;BME280;22147;52.388;13.390;2024-01-07T12:03:56;101503.78;;;-3.62;100.00
36092;BME280;22147;52.388;13.390;2024-01-07T12:06:24;101501.22;;;-3.57;100.00
36092;BME280;22147;52.388;13.390;2024-01-07T12:08:52;101496.84;;;-3.51;100.00
36092;BME280;22147;52.388;13.390;2024-01-07T12:11:21;101496.63;;;-3.56;100.00
36092;BME280;22147;52.388;13.390;2024-01-07T12:13:50;101493.91;;;-3.56;100.00
36092;BME280;22147;52.388;13.390;2024-01-07T12:16:18;101491.41;;;-3.58;100.00
36092;BME280;22147;52.388;13.390;2024-01-07T12:18:46;101490.38;;;-3.57;100.00
36092;BME280;22147;52.388;13.390;2024-01-07T12:21:24;101492.28;;;-3.64;100.00
36092;BME280;22147;52.388;13.390;2024-01-07T12:23:54;101488.31;;;-3.61;100.00
36092;BME280;22147;52.388;13.390;2024-01-07T12:26:28;101492.06;;;-3.62;100.00
36092;BME280;22147;52.388;13.390;2024-01-07T12:29:00;101490.59;;;-3.65;100.00
36092;BME280;22147;52.388;13.390;2024-01-07T12:31:34;101490.81;;;-3.66;100.00
36092;BME280;22147;52.388;13.390;2024-01-07T12:34:05;101493.13;;;-3.63;100.00
36092;BME280;22147;52.388;13.390;2024-01-07T12:36:35;101497.47;;;-3.62;100.00
36092;BME280;22147;52.388;13.390;2024-01-07T12:39:06;101497.72;;;-3.64;100.00
36092;BME280;22147;52.388;13.390;2024-01-07T12:41:37;101504.41;;;-3.66;100.00
36092;BME280;22147;52.388;13.390;2024-01-07T12:44:07;101496.03;;;-3.65;100.00
36092;BME280;22147;52.388;13.390;2024-01-07T12:46:38;101505.44;;;-3.61;100.00
36092;BME280;22147;52.388;13.390;2024-01-07T12:49:08;101504.97;;;-3.58;100.00
36092;BME280;22147;52.388;13.390;2024-01-07T12:51:39;101509.41;;;-3.63;100.00
36092;BME280;22147;52.388;13.390;2024-01-07T12:54:10;101506.25;;;-3.60;100.00
36092;BME280;22147;52.388;13.390;2024-01-07T12:56:40;101512.72;;;-3.55;100.00
36092;BME280;22147;52.388;13.390;2024-01-07T12:59:10;101505.22;;;-3.59;100.00